Eureka の空港の天気 - METARとTAF

Eureka ( CWEU / ) - カナダ ヌナブト準州Eureka
飛行場実況気象(Metar)
観測時間10/19 13:00 CDT (10/19 18:00 UTC)
風向・風速北 4m/s
視程8050m
天気現象もや
少しの雲 雲底高度 370m
全天の4割程度の雲 雲底高度 910m
全天の8割程度の雲 雲底高度 2440m
全天を覆う雲 雲底高度 3350m
気温-13℃
湿度85%
気圧1008.9hPa
METARCWEU 191800Z 01008KT 5SM BR FEW012 SCT030 BKN080 OVC110 M13/M15 A2978 RMK SC1SC2AC4AC1 SHSN N SLP089
過去の天気等 Google飛行場航空写真 Wunderground天気予報

過去48時間のMETAR

飛行場予報(TAF)
データがありません